Caletta — ICNZ — position and weather

sailwx.info

Track history (hours):
 
Tides and Currents Weather Stations Pressure Air Temp Water Temp Dewpoint Dewpoint Depression Visibility Wind Speed Wind Dir Waves Ship Positions

Caletta

Last reported at 2015-Jul-01 10:28 UTC. Time now 2015-Jul-02 08:10 UTC.
Position N 37°45' E 016°02'.

Length 183 m; draft 7.6 m.

Type: Ship (hazmat cat A). MMSI: 247296300.

Date/timePositionNaut miles runAvg speedWind from/ knotsBaromVisibWave heightAir tempDewpointWater temp
2015-Jul-01 10:28N 37°45' E 016°02'1211.9
2015-Jul-01 09:29N 37°49' E 015°48'1112.3
2015-Jul-01 08:33N 37°55' E 015°36'1312.5
2015-Jul-01 07:33N 38°08' E 015°34'1312.8
2015-Jul-01 06:33N 38°20' E 015°39'1414.0
2015-Jul-01 05:32N 38°32' E 015°30'1312.6
2015-Jul-01 04:32N 38°43' E 015°22'1212.6
2015-Jul-01 03:33N 38°54' E 015°14'6412.7
2015-Jun-30 22:33N 39°49' E 014°34'1412.8
2015-Jun-30 21:25N 40°01' E 014°22'6 6.6
2015-Jun-30 20:33N 40°05' E 014°18'1 0.9
2015-Jun-30 19:30N 40°06' E 014°18'1 0.9
2015-Jun-30 18:33N 40°07' E 014°19'1 0.8
2015-Jun-30 17:32N 40°08' E 014°19'1 0.8
2015-Jun-30 16:33N 40°09' E 014°18'1 0.7
2015-Jun-30 15:33N 40°09' E 014°18'1 1.0
2015-Jun-30 14:33N 40°10' E 014°17'8 7.7
2015-Jun-30 13:33N 40°17' E 014°13'1312.9
2015-Jun-30 12:32N 40°29' E 014°05'8 8.5
2015-Jun-30 11:34N 40°37' E 014°06'1211.5
2015-Jun-30 10:34N 40°46' E 014°17'5 3.5
2015-Jun-30 09:16N 40°50' E 014°18'0 0.0
2015-Jun-30 08:10N 40°50' E 014°18'0 0.0
2015-Jun-30 07:25N 40°50' E 014°18'0 0.0
2015-Jun-30 04:22N 40°50' E 014°18'0 0.0
2015-Jun-30 03:22N 40°50' E 014°18'0 0.0
2015-Jun-30 02:22N 40°50' E 014°18'0 0.0
2015-Jun-30 01:31N 40°50' E 014°18'0 0.0
2015-Jun-30 00:28N 40°50' E 014°18'0 0.0
2015-Jun-29 23:22N 40°50' E 014°18'0 0.0
2015-Jun-29 20:28N 40°50' E 014°18'0 0.0
2015-Jun-29 19:28N 40°50' E 014°18'0 0.0
2015-Jun-29 18:25N 40°50' E 014°18'0 0.0
2015-Jun-29 17:22N 40°50' E 014°18'0 0.0
2015-Jun-29 15:10N 40°50' E 014°18'0 0.0
2015-Jun-29 14:19N 40°50' E 014°18'0 0.0
2015-Jun-29 13:22N 40°50' E 014°18'0 0.0
2015-Jun-29 12:22N 40°50' E 014°18'0 0.0
2015-Jun-29 10:22N 40°50' E 014°18'0 0.0
2015-Jun-29 08:22N 40°50' E 014°18'0 0.0
2015-Jun-29 06:31N 40°50' E 014°18'0 0.0
2015-Jun-29 03:16N 40°50' E 014°18'0 0.0
2015-Jun-29 02:28N 40°50' E 014°18'0 0.0
2015-Jun-29 01:16N 40°50' E 014°18'0 0.0
2015-Jun-29 00:28N 40°50' E 014°18'0 0.0
2015-Jun-28 23:28N 40°50' E 014°18'0 0.0
2015-Jun-28 22:28N 40°50' E 014°18'0 0.0
2015-Jun-28 21:22N 40°50' E 014°18'0 0.0
2015-Jun-28 20:31N 40°50' E 014°18'0 0.0
2015-Jun-28 19:28N 40°50' E 014°18'0 0.0
2015-Jun-28 18:31N 40°50' E 014°18'0 0.0
2015-Jun-28 17:28N 40°50' E 014°18'0 0.0
2015-Jun-28 16:07N 40°50' E 014°18'0 0.0
2015-Jun-28 15:31N 40°50' E 014°18'0 0.0
2015-Jun-28 14:28N 40°50' E 014°18'1 1.3
2015-Jun-28 13:33N 40°49' E 014°19'1 0.7
2015-Jun-28 12:25N 40°49' E 014°19'0 0.0
2015-Jun-28 11:25N 40°49' E 014°19'0 0.0
2015-Jun-28 10:28N 40°49' E 014°19'0 0.1
2015-Jun-28 09:28N 40°49' E 014°19'0 0.0
2015-Jun-28 07:22N 40°49' E 014°19'0 0.5
2015-Jun-28 06:33N 40°48' E 014°19'9 8.9
2015-Jun-28 05:34N 40°40' E 014°13'1212.4
2015-Jun-28 04:33N 40°35' E 013°59'1313.0
2015-Jun-28 03:33N 40°29' E 013°43'1413.4
2015-Jun-28 02:33N 40°23' E 013°27'2613.2
2015-Jun-28 00:33N 40°12' E 012°57'14513.1
2015-Jun-27 13:32N 39°08' E 010°07'1313.4
2015-Jun-27 12:32N 39°02' E 009°52'1313.4
2015-Jun-27 11:33N 38°56' E 009°37'1111.2
2015-Jun-27 10:33N 38°57' E 009°22'1312.9
2015-Jun-27 09:33N 39°04' E 009°08'5 4.5
2015-Jun-27 08:33N 39°06' E 009°03'1 0.6
2015-Jun-27 07:33N 39°05' E 009°02'0 0.0
2015-Jun-27 06:31N 39°05' E 009°02'0 0.0
2015-Jun-27 05:34N 39°05' E 009°02'0 0.0
2015-Jun-27 04:31N 39°05' E 009°02'0 0.0
2015-Jun-27 03:33N 39°05' E 009°02'0 0.0
2015-Jun-27 02:34N 39°05' E 009°02'0 0.0
2015-Jun-27 01:34N 39°05' E 009°02'0 0.0
2015-Jun-27 00:34N 39°05' E 009°02'0 0.0
2015-Jun-26 23:33N 39°05' E 009°02'0 0.0
2015-Jun-26 22:33N 39°05' E 009°02'0 0.0
2015-Jun-26 21:33N 39°05' E 009°02'0 0.0
2015-Jun-26 20:34N 39°05' E 009°02'0 0.0
2015-Jun-26 19:30N 39°05' E 009°02'0 0.0
2015-Jun-26 18:30N 39°05' E 009°02'0 0.0
2015-Jun-26 17:33N 39°05' E 009°02'0 0.0
2015-Jun-26 16:31N 39°05' E 009°02'0 0.0
2015-Jun-26 15:33N 39°05' E 009°02'0 0.0
2015-Jun-26 14:33N 39°05' E 009°02'0 0.0
2015-Jun-26 13:33N 39°05' E 009°02'0 0.0
2015-Jun-26 12:33N 39°05' E 009°02'0 0.0
2015-Jun-26 11:33N 39°05' E 009°02'2 2.1
2015-Jun-26 10:32N 39°04' E 009°04'0 0.1
2015-Jun-26 09:32N 39°04' E 009°04'0 0.1
2015-Jun-26 08:32N 39°04' E 009°04'0 0.0
2015-Jun-26 07:32N 39°04' E 009°04'0 0.0
2015-Jun-26 06:32N 39°04' E 009°04'0 0.0
2015-Jun-26 05:32N 39°04' E 009°04'1 1.5
2015-Jun-26 04:33N 39°03' E 009°06'1212.0
2015-Jun-26 03:33N 38°58' E 009°20'1412.0
2015-Jun-26 02:23N 38°57' E 009°38'1012.5
2015-Jun-26 01:33N 39°01' E 009°50'2912.9
2015-Jun-25 23:19N 39°28' E 010°05'7812.8
2015-Jun-25 17:16N 40°38' E 010°47'  
Track history (hours):
 
Tides and Currents Weather Stations Pressure Air Temp Water Temp Dewpoint Dewpoint Depression Visibility Wind Speed Wind Dir Waves Ship Positions

Caletta

Last reported at 2015-Jul-01 10:28 UTC. Time now 2015-Jul-02 08:10 UTC.
Position N 37°45' E 016°02'.

Length 183 m; draft 7.6 m.

Type: Ship (hazmat cat A). MMSI: 247296300.

Date/timePositionNaut miles runAvg speedWind from/ knotsBaromVisibWave heightAir tempDewpointWater temp
2015-Jul-01 10:28N 37°45' E 016°02'1211.9
2015-Jul-01 09:29N 37°49' E 015°48'1112.3
2015-Jul-01 08:33N 37°55' E 015°36'1312.5
2015-Jul-01 07:33N 38°08' E 015°34'1312.8
2015-Jul-01 06:33N 38°20' E 015°39'1414.0
2015-Jul-01 05:32N 38°32' E 015°30'1312.6
2015-Jul-01 04:32N 38°43' E 015°22'1212.6
2015-Jul-01 03:33N 38°54' E 015°14'6412.7
2015-Jun-30 22:33N 39°49' E 014°34'1412.8
2015-Jun-30 21:25N 40°01' E 014°22'6 6.6
2015-Jun-30 20:33N 40°05' E 014°18'1 0.9
2015-Jun-30 19:30N 40°06' E 014°18'1 0.9
2015-Jun-30 18:33N 40°07' E 014°19'1 0.8
2015-Jun-30 17:32N 40°08' E 014°19'1 0.8
2015-Jun-30 16:33N 40°09' E 014°18'1 0.7
2015-Jun-30 15:33N 40°09' E 014°18'1 1.0
2015-Jun-30 14:33N 40°10' E 014°17'8 7.7
2015-Jun-30 13:33N 40°17' E 014°13'1312.9
2015-Jun-30 12:32N 40°29' E 014°05'8 8.5
2015-Jun-30 11:34N 40°37' E 014°06'1211.5
2015-Jun-30 10:34N 40°46' E 014°17'5 3.5
2015-Jun-30 09:16N 40°50' E 014°18'0 0.0
2015-Jun-30 08:10N 40°50' E 014°18'0 0.0
2015-Jun-30 07:25N 40°50' E 014°18'0 0.0
2015-Jun-30 04:22N 40°50' E 014°18'0 0.0
2015-Jun-30 03:22N 40°50' E 014°18'0 0.0
2015-Jun-30 02:22N 40°50' E 014°18'0 0.0
2015-Jun-30 01:31N 40°50' E 014°18'0 0.0
2015-Jun-30 00:28N 40°50' E 014°18'0 0.0
2015-Jun-29 23:22N 40°50' E 014°18'0 0.0
2015-Jun-29 20:28N 40°50' E 014°18'0 0.0
2015-Jun-29 19:28N 40°50' E 014°18'0 0.0
2015-Jun-29 18:25N 40°50' E 014°18'0 0.0
2015-Jun-29 17:22N 40°50' E 014°18'0 0.0
2015-Jun-29 15:10N 40°50' E 014°18'0 0.0
2015-Jun-29 14:19N 40°50' E 014°18'0 0.0
2015-Jun-29 13:22N 40°50' E 014°18'0 0.0
2015-Jun-29 12:22N 40°50' E 014°18'0 0.0
2015-Jun-29 10:22N 40°50' E 014°18'0 0.0
2015-Jun-29 08:22N 40°50' E 014°18'0 0.0
2015-Jun-29 06:31N 40°50' E 014°18'0 0.0
2015-Jun-29 03:16N 40°50' E 014°18'0 0.0
2015-Jun-29 02:28N 40°50' E 014°18'0 0.0
2015-Jun-29 01:16N 40°50' E 014°18'0 0.0
2015-Jun-29 00:28N 40°50' E 014°18'0 0.0
2015-Jun-28 23:28N 40°50' E 014°18'0 0.0
2015-Jun-28 22:28N 40°50' E 014°18'0 0.0
2015-Jun-28 21:22N 40°50' E 014°18'0 0.0
2015-Jun-28 20:31N 40°50' E 014°18'0 0.0
2015-Jun-28 19:28N 40°50' E 014°18'0 0.0
2015-Jun-28 18:31N 40°50' E 014°18'0 0.0
2015-Jun-28 17:28N 40°50' E 014°18'0 0.0
2015-Jun-28 16:07N 40°50' E 014°18'0 0.0
2015-Jun-28 15:31N 40°50' E 014°18'0 0.0
2015-Jun-28 14:28N 40°50' E 014°18'1 1.3
2015-Jun-28 13:33N 40°49' E 014°19'1 0.7
2015-Jun-28 12:25N 40°49' E 014°19'0 0.0
2015-Jun-28 11:25N 40°49' E 014°19'0 0.0
2015-Jun-28 10:28N 40°49' E 014°19'0 0.1
2015-Jun-28 09:28N 40°49' E 014°19'0 0.0
2015-Jun-28 07:22N 40°49' E 014°19'0 0.5
2015-Jun-28 06:33N 40°48' E 014°19'9 8.9
2015-Jun-28 05:34N 40°40' E 014°13'1212.4
2015-Jun-28 04:33N 40°35' E 013°59'1313.0
2015-Jun-28 03:33N 40°29' E 013°43'1413.4
2015-Jun-28 02:33N 40°23' E 013°27'2613.2
2015-Jun-28 00:33N 40°12' E 012°57'14513.1
2015-Jun-27 13:32N 39°08' E 010°07'1313.4
2015-Jun-27 12:32N 39°02' E 009°52'1313.4
2015-Jun-27 11:33N 38°56' E 009°37'1111.2
2015-Jun-27 10:33N 38°57' E 009°22'1312.9
2015-Jun-27 09:33N 39°04' E 009°08'5 4.5
2015-Jun-27 08:33N 39°06' E 009°03'1 0.6
2015-Jun-27 07:33N 39°05' E 009°02'0 0.0
2015-Jun-27 06:31N 39°05' E 009°02'0 0.0
2015-Jun-27 05:34N 39°05' E 009°02'0 0.0
2015-Jun-27 04:31N 39°05' E 009°02'0 0.0
2015-Jun-27 03:33N 39°05' E 009°02'0 0.0
2015-Jun-27 02:34N 39°05' E 009°02'0 0.0
2015-Jun-27 01:34N 39°05' E 009°02'0 0.0
2015-Jun-27 00:34N 39°05' E 009°02'0 0.0
2015-Jun-26 23:33N 39°05' E 009°02'0 0.0
2015-Jun-26 22:33N 39°05' E 009°02'0 0.0
2015-Jun-26 21:33N 39°05' E 009°02'0 0.0
2015-Jun-26 20:34N 39°05' E 009°02'0 0.0
2015-Jun-26 19:30N 39°05' E 009°02'0 0.0
2015-Jun-26 18:30N 39°05' E 009°02'0 0.0
2015-Jun-26 17:33N 39°05' E 009°02'0 0.0
2015-Jun-26 16:31N 39°05' E 009°02'0 0.0
2015-Jun-26 15:33N 39°05' E 009°02'0 0.0
2015-Jun-26 14:33N 39°05' E 009°02'0 0.0
2015-Jun-26 13:33N 39°05' E 009°02'0 0.0
2015-Jun-26 12:33N 39°05' E 009°02'0 0.0
2015-Jun-26 11:33N 39°05' E 009°02'2 2.1
2015-Jun-26 10:32N 39°04' E 009°04'0 0.1
2015-Jun-26 09:32N 39°04' E 009°04'0 0.1
2015-Jun-26 08:32N 39°04' E 009°04'0 0.0
2015-Jun-26 07:32N 39°04' E 009°04'0 0.0
2015-Jun-26 06:32N 39°04' E 009°04'0 0.0
2015-Jun-26 05:32N 39°04' E 009°04'1 1.5
2015-Jun-26 04:33N 39°03' E 009°06'1212.0
2015-Jun-26 03:33N 38°58' E 009°20'1412.0
2015-Jun-26 02:23N 38°57' E 009°38'1012.5
2015-Jun-26 01:33N 39°01' E 009°50'2912.9
2015-Jun-25 23:19N 39°28' E 010°05'7812.8
2015-Jun-25 17:16N 40°38' E 010°47'  

Dump ship's entire track history